La Belle, Florida
Current Conditions -  °F | °C
As of 7:35 AM on Friday 24 Oct 2014 (Local Time) from KIMM Reporting Station
Clear Clear  
Wind Chill: 64°   Ceiling: Unl
Heat Index: 64°   Visibility: 10mi
Dew Point: 64°   Wind: 6mph
Humidity: 100%   Direction: 350°N
Pressure: 29.91"   Gusts: NA
Location:  26.76°N, 81.44°W
Report Text: KIMM 241135Z AUTO 35005KT 10SM CLR 18/18 A2991 RMK A01 P000
Loading
Personal Weather Stations






























Interactive Weather Map
Tropical Storm Tracking
New forecast layout! Learn more

10-Day Weather Forecast

Advertisements
Track Severe Weather on mobile